createdAt,value
2022-10-17T00:00:36.920Z,14.10
2022-10-17T00:03:03.996Z,14.10
2022-10-17T00:05:30.599Z,14.10
2022-10-17T00:07:57.822Z,14.10
2022-10-17T00:10:24.778Z,14.10
2022-10-17T00:12:52.151Z,14.00
2022-10-17T00:15:22.609Z,14.00
2022-10-17T00:17:49.494Z,14.00
2022-10-17T00:20:16.426Z,13.70
2022-10-17T00:22:43.890Z,14.10
2022-10-17T00:25:11.366Z,14.00
2022-10-17T00:27:39.592Z,14.20
2022-10-17T00:30:09.940Z,14.20
2022-10-17T00:32:36.730Z,14.20
2022-10-17T00:35:04.219Z,14.10
2022-10-17T00:37:31.458Z,14.10
2022-10-17T00:39:58.282Z,13.90
2022-10-17T00:42:26.361Z,14.00
2022-10-17T00:45:17.693Z,14.60
2022-10-17T00:47:48.112Z,14.30
2022-10-17T00:50:15.298Z,14.20
2022-10-17T00:52:42.798Z,13.00
2022-10-17T00:55:14.520Z,13.40
2022-10-17T00:57:42.560Z,14.20
2022-10-17T01:00:10.834Z,13.90
2022-10-17T01:02:38.973Z,13.80
2022-10-17T01:05:06.988Z,13.90
2022-10-17T01:07:37.184Z,14.00
2022-10-17T01:10:06.023Z,14.20
2022-10-17T01:12:40.850Z,14.40
2022-10-17T01:15:13.398Z,14.10
2022-10-17T01:17:48.164Z,14.30
2022-10-17T01:21:00.027Z,14.60
2022-10-17T01:23:47.946Z,14.10
2022-10-17T01:26:22.674Z,14.30
2022-10-17T01:29:20.462Z,13.80
2022-10-17T01:31:52.305Z,13.90
2022-10-17T01:34:23.809Z,13.80
2022-10-17T01:36:56.155Z,13.80
2022-10-17T01:39:29.980Z,14.00
2022-10-17T01:42:01.964Z,13.90
2022-10-17T01:44:37.558Z,13.90
2022-10-17T01:47:08.654Z,12.80
2022-10-17T01:49:37.285Z,13.70
2022-10-17T01:52:08.535Z,13.80
2022-10-17T01:54:39.797Z,13.50
2022-10-17T01:57:11.046Z,13.80
2022-10-17T01:59:41.207Z,13.60
2022-10-17T02:02:09.731Z,14.30
2022-10-17T02:04:36.938Z,13.70
2022-10-17T02:07:07.255Z,13.80
2022-10-17T02:09:35.313Z,13.80
2022-10-17T02:12:15.656Z,13.40
2022-10-17T02:14:53.754Z,13.50
2022-10-17T02:17:35.030Z,13.60
2022-10-17T02:20:09.984Z,13.50
2022-10-17T02:22:41.524Z,13.50
2022-10-17T02:25:14.967Z,13.50
2022-10-17T02:27:45.361Z,13.20
2022-10-17T02:30:15.329Z,13.30
2022-10-17T02:32:50.437Z,13.50
2022-10-17T02:35:19.436Z,13.30
2022-10-17T02:37:47.945Z,13.70
2022-10-17T02:40:18.007Z,13.80
2022-10-17T02:42:45.868Z,13.70
2022-10-17T02:45:14.335Z,13.60
2022-10-17T02:47:49.527Z,13.90
2022-10-17T02:50:16.314Z,13.60
2022-10-17T02:52:49.389Z,13.70
2022-10-17T02:55:30.332Z,13.60
2022-10-17T02:58:00.456Z,13.90
2022-10-17T03:00:28.671Z,13.30
2022-10-17T03:02:55.976Z,13.60
2022-10-17T03:05:25.162Z,13.60
2022-10-17T03:07:52.625Z,13.70
2022-10-17T03:10:19.496Z,13.60
2022-10-17T03:12:46.092Z,13.80
2022-10-17T03:15:13.478Z,13.50
2022-10-17T03:17:40.333Z,13.60
2022-10-17T03:20:08.260Z,13.50
2022-10-17T03:22:34.847Z,13.60
2022-10-17T03:25:01.447Z,13.50
2022-10-17T03:27:28.245Z,13.50
2022-10-17T03:29:55.128Z,13.60
2022-10-17T03:32:21.680Z,13.60
2022-10-17T03:34:48.244Z,13.60
2022-10-17T03:37:15.534Z,13.60
2022-10-17T03:39:42.064Z,13.60
2022-10-17T03:42:08.710Z,13.30
2022-10-17T03:44:35.391Z,13.80
2022-10-17T03:47:01.999Z,13.70
2022-10-17T03:49:28.659Z,13.50
2022-10-17T03:51:55.262Z,13.60
2022-10-17T03:54:22.517Z,13.50
2022-10-17T03:56:49.134Z,13.60
2022-10-17T03:59:16.167Z,13.50
2022-10-17T04:01:43.380Z,13.50
2022-10-17T04:04:10.407Z,13.60
2022-10-17T04:06:37.651Z,13.40
2022-10-17T04:09:05.268Z,13.40
2022-10-17T04:11:32.742Z,13.40
2022-10-17T04:13:59.477Z,13.10
2022-10-17T04:16:26.787Z,13.40
2022-10-17T04:18:54.996Z,13.50
2022-10-17T04:21:22.210Z,13.30
2022-10-17T04:23:52.298Z,13.10
2022-10-17T04:26:18.897Z,13.40
2022-10-17T04:28:46.160Z,13.40
2022-10-17T04:31:14.128Z,13.40
2022-10-17T04:33:41.714Z,13.40
2022-10-17T04:36:11.560Z,13.30
2022-10-17T04:38:38.622Z,13.40
2022-10-17T04:41:08.048Z,13.10
2022-10-17T04:43:37.075Z,13.30
2022-10-17T04:46:06.672Z,13.20
2022-10-17T04:48:33.529Z,13.40
2022-10-17T04:51:01.491Z,13.30
2022-10-17T04:53:30.272Z,13.30
2022-10-17T04:55:56.817Z,13.40
2022-10-17T04:58:23.559Z,13.20
2022-10-17T05:00:50.177Z,12.60
2022-10-17T05:03:17.567Z,11.00
2022-10-17T05:05:44.171Z,13.40
2022-10-17T05:08:11.532Z,13.30
2022-10-17T05:10:39.437Z,13.10
2022-10-17T05:13:06.010Z,12.90
2022-10-17T05:15:32.643Z,13.30
2022-10-17T05:17:59.478Z,13.10
2022-10-17T05:20:27.463Z,13.30
2022-10-17T05:22:54.638Z,13.40
2022-10-17T05:25:21.712Z,13.20
2022-10-17T05:27:48.474Z,13.40
2022-10-17T05:30:16.456Z,13.20
2022-10-17T05:32:44.303Z,13.10
2022-10-17T05:35:10.971Z,12.80
2022-10-17T05:37:38.224Z,13.50
2022-10-17T05:40:05.628Z,13.10
2022-10-17T05:42:32.791Z,13.40
2022-10-17T05:44:59.609Z,13.30
2022-10-17T05:47:26.286Z,13.40
2022-10-17T05:49:56.813Z,13.10
2022-10-17T05:52:23.407Z,13.60
2022-10-17T05:54:50.655Z,13.40
2022-10-17T05:57:17.255Z,13.20
2022-10-17T05:59:43.893Z,13.70
2022-10-17T06:02:13.799Z,13.60
2022-10-17T06:04:44.762Z,13.60
2022-10-17T06:07:13.171Z,13.70
2022-10-17T06:09:39.746Z,13.70
2022-10-17T06:12:07.070Z,13.60
2022-10-17T06:14:33.907Z,13.70
2022-10-17T06:17:00.790Z,13.30
2022-10-17T06:19:27.575Z,13.60
2022-10-17T06:21:54.613Z,13.90
2022-10-17T06:24:21.251Z,13.90
2022-10-17T06:26:49.148Z,14.10
2022-10-17T06:29:16.533Z,13.40
2022-10-17T06:31:43.157Z,14.20
2022-10-17T06:34:09.739Z,14.00
2022-10-17T06:36:36.326Z,14.10
2022-10-17T06:39:03.135Z,14.30
2022-10-17T06:41:29.715Z,14.40
2022-10-17T06:43:56.284Z,14.30
2022-10-17T06:46:26.008Z,14.50
2022-10-17T06:48:52.642Z,14.50
2022-10-17T06:51:19.183Z,14.50
2022-10-17T06:53:46.405Z,14.50
2022-10-17T06:56:13.000Z,14.50
2022-10-17T06:58:40.355Z,14.70
2022-10-17T07:03:42.835Z,14.70
2022-10-17T07:06:10.515Z,14.70
2022-10-17T07:08:43.245Z,15.00
2022-10-17T07:11:10.409Z,15.00
2022-10-17T07:13:39.280Z,15.00
2022-10-17T07:16:06.923Z,15.10
2022-10-17T07:18:33.689Z,15.20
2022-10-17T07:21:01.065Z,15.20
2022-10-17T07:23:27.769Z,15.30
2022-10-17T07:25:59.523Z,15.40
2022-10-17T07:28:26.251Z,15.30
2022-10-17T07:30:54.469Z,15.50
2022-10-17T07:33:21.796Z,15.50
2022-10-17T07:35:52.605Z,15.60
2022-10-17T07:38:19.884Z,15.60
2022-10-17T07:40:53.029Z,15.20
2022-10-17T07:43:19.670Z,16.00
2022-10-17T07:45:46.282Z,15.90
2022-10-17T07:48:12.847Z,15.90
2022-10-17T07:50:39.586Z,16.10
2022-10-17T07:53:06.199Z,16.20
2022-10-17T07:55:33.396Z,16.30
2022-10-17T07:58:00.085Z,16.60
2022-10-17T08:00:27.140Z,16.50
2022-10-17T08:02:53.805Z,16.80
2022-10-17T08:05:20.537Z,16.70
2022-10-17T08:07:47.076Z,16.80
2022-10-17T08:10:15.138Z,17.00
2022-10-17T08:12:42.866Z,16.80
2022-10-17T08:15:10.726Z,17.20
2022-10-17T08:17:38.532Z,17.40
2022-10-17T08:20:07.663Z,17.50
2022-10-17T08:22:34.682Z,17.80
2022-10-17T08:25:01.275Z,17.70
2022-10-17T08:27:28.240Z,17.90
2022-10-17T08:29:55.481Z,17.90
2022-10-17T08:32:25.100Z,18.10
2022-10-17T08:34:52.392Z,18.10
2022-10-17T08:37:19.478Z,18.10
2022-10-17T08:39:46.143Z,18.10
2022-10-17T08:42:36.258Z,18.00
2022-10-17T08:45:15.667Z,18.20
2022-10-17T08:47:45.382Z,18.40
2022-10-17T08:50:17.986Z,18.60
2022-10-17T08:52:48.961Z,18.60
2022-10-17T08:55:17.306Z,18.70
2022-10-17T08:57:44.118Z,18.80
2022-10-17T09:00:18.400Z,18.90
2022-10-17T09:02:56.172Z,19.10
2022-10-17T09:05:47.094Z,19.40
2022-10-17T09:08:28.771Z,19.20
2022-10-17T09:10:59.847Z,19.60
2022-10-17T09:13:43.559Z,19.60
2022-10-17T09:16:36.614Z,19.70
2022-10-17T09:19:09.676Z,19.90
2022-10-17T09:21:43.002Z,20.00
2022-10-17T09:24:16.160Z,20.10
2022-10-17T09:26:45.413Z,20.30
2022-10-17T09:29:18.742Z,20.20
2022-10-17T09:31:54.600Z,20.00
2022-10-17T09:34:29.282Z,20.50
2022-10-17T09:36:58.284Z,20.60
2022-10-17T09:39:28.535Z,20.70
2022-10-17T09:41:56.915Z,20.70
2022-10-17T09:44:25.869Z,20.80
2022-10-17T09:47:17.268Z,20.80
2022-10-17T09:49:45.730Z,20.80
2022-10-17T09:52:18.081Z,20.90
2022-10-17T09:54:47.458Z,20.90
2022-10-17T09:57:15.918Z,21.00
2022-10-17T09:59:44.725Z,21.20
2022-10-17T10:02:18.778Z,21.10
2022-10-17T10:05:08.534Z,21.20
2022-10-17T10:07:39.466Z,21.30
2022-10-17T10:10:08.451Z,21.60
2022-10-17T10:12:38.105Z,21.70
2022-10-17T10:15:32.212Z,21.90
2022-10-17T10:17:59.872Z,22.00
2022-10-17T10:20:30.986Z,22.10
2022-10-17T10:23:17.658Z,22.20
2022-10-17T10:25:54.012Z,22.30
2022-10-17T10:28:24.791Z,22.40
2022-10-17T10:30:56.244Z,22.30
2022-10-17T10:33:28.984Z,22.30
2022-10-17T10:36:02.788Z,22.20
2022-10-17T10:38:32.627Z,22.20
2022-10-17T10:41:04.127Z,22.20
2022-10-17T10:43:35.476Z,22.20
2022-10-17T10:46:05.823Z,22.30
2022-10-17T10:48:36.752Z,22.30
2022-10-17T10:51:09.318Z,22.40
2022-10-17T10:53:47.295Z,22.60
2022-10-17T10:56:19.495Z,22.70
2022-10-17T10:58:54.411Z,22.80
2022-10-17T11:01:27.922Z,22.80
2022-10-17T11:04:06.355Z,22.80
2022-10-17T11:06:36.829Z,22.80
2022-10-17T11:09:17.911Z,22.90
2022-10-17T11:11:49.783Z,22.90
2022-10-17T11:14:20.968Z,23.00
2022-10-17T11:16:53.824Z,23.20
2022-10-17T11:19:28.141Z,23.30
2022-10-17T11:22:04.810Z,23.30
2022-10-17T11:24:36.811Z,23.40
2022-10-17T11:27:05.917Z,23.40
2022-10-17T11:29:35.075Z,23.40
2022-10-17T11:32:05.685Z,23.30
2022-10-17T11:34:37.707Z,23.60
2022-10-17T11:37:10.861Z,23.70
2022-10-17T11:39:47.377Z,23.90
2022-10-17T11:42:18.366Z,23.90
2022-10-17T11:44:45.171Z,23.90
2022-10-17T11:47:20.540Z,23.80
2022-10-17T11:49:53.744Z,23.60
2022-10-17T11:52:55.372Z,24.10
2022-10-17T11:55:21.414Z,24.40
2022-10-17T11:58:01.454Z,24.20
2022-10-17T12:00:40.725Z,24.40
2022-10-17T12:03:22.305Z,24.30
2022-10-17T12:05:56.708Z,24.40
2022-10-17T12:08:31.570Z,24.50
2022-10-17T12:11:03.934Z,24.50
2022-10-17T12:13:54.012Z,24.70
2022-10-17T12:16:48.161Z,24.70
2022-10-17T12:19:25.934Z,24.50
2022-10-17T12:21:59.143Z,24.80
2022-10-17T12:24:41.723Z,24.90
2022-10-17T12:27:42.828Z,25.00
2022-10-17T12:30:22.329Z,27.30
2022-10-17T12:33:07.164Z,32.30
2022-10-17T12:35:36.192Z,35.50
2022-10-17T12:38:18.929Z,37.80
2022-10-17T12:40:50.742Z,39.50
2022-10-17T12:43:39.728Z,39.00
2022-10-17T12:46:10.206Z,40.70
2022-10-17T12:48:59.846Z,40.70
2022-10-17T12:51:37.596Z,39.60
2022-10-17T12:54:12.076Z,39.60
2022-10-17T12:56:43.847Z,38.70
2022-10-17T12:59:56.623Z,38.60
2022-10-17T13:02:28.031Z,37.70
2022-10-17T13:05:14.074Z,36.70
2022-10-17T13:07:43.739Z,36.20
2022-10-17T13:10:22.520Z,35.30
2022-10-17T13:12:50.660Z,34.50
2022-10-17T13:15:19.679Z,33.50
2022-10-17T13:17:54.813Z,32.80
2022-10-17T13:20:28.871Z,32.50
2022-10-17T13:22:58.062Z,32.90
2022-10-17T13:25:26.972Z,33.00
2022-10-17T13:28:06.180Z,33.20
2022-10-17T13:30:36.723Z,32.80
2022-10-17T13:33:15.670Z,31.70
2022-10-17T13:35:59.485Z,31.30
2022-10-17T13:38:31.419Z,30.90
2022-10-17T13:41:06.059Z,30.30
2022-10-17T13:43:44.146Z,29.80
2022-10-17T13:46:36.751Z,31.10
2022-10-17T13:49:12.266Z,31.60
2022-10-17T13:51:43.469Z,30.50
2022-10-17T13:54:18.809Z,31.00
2022-10-17T13:56:46.149Z,32.30
2022-10-17T13:59:23.233Z,32.90
2022-10-17T14:01:51.716Z,31.90
2022-10-17T14:04:20.404Z,30.90
2022-10-17T14:06:51.219Z,30.70
2022-10-17T14:09:22.554Z,31.60
2022-10-17T14:12:00.345Z,32.40
2022-10-17T14:14:28.262Z,31.70
2022-10-17T14:16:55.173Z,29.30
2022-10-17T14:19:25.941Z,27.70
2022-10-17T14:21:54.197Z,26.60
2022-10-17T14:24:30.724Z,26.00
2022-10-17T14:26:59.779Z,25.40
2022-10-17T14:29:28.353Z,25.20
2022-10-17T14:32:12.647Z,25.00
2022-10-17T14:34:40.801Z,24.80
2022-10-17T14:37:11.949Z,24.70
2022-10-17T14:39:39.428Z,24.60
2022-10-17T14:42:06.679Z,24.50
2022-10-17T14:44:35.173Z,24.40
2022-10-17T14:47:30.433Z,24.30
2022-10-17T14:50:01.501Z,24.40
2022-10-17T14:52:30.783Z,24.20
2022-10-17T14:54:59.199Z,23.90
2022-10-17T14:57:40.226Z,23.90
2022-10-17T15:00:08.254Z,23.80
2022-10-17T15:02:35.474Z,23.70
2022-10-17T15:05:02.107Z,23.60
2022-10-17T15:07:29.073Z,23.50
2022-10-17T15:09:55.668Z,23.50
2022-10-17T15:12:24.638Z,23.40
2022-10-17T15:14:52.571Z,23.20
2022-10-17T15:17:21.931Z,23.30
2022-10-17T15:19:49.776Z,23.30
2022-10-17T15:22:17.484Z,23.10
2022-10-17T15:24:45.448Z,23.10
2022-10-17T15:27:16.626Z,23.00
2022-10-17T15:29:43.361Z,23.00
2022-10-17T15:32:10.702Z,22.90
2022-10-17T15:34:37.331Z,22.90
2022-10-17T15:37:05.521Z,22.90
2022-10-17T15:39:33.679Z,22.80
2022-10-17T15:42:00.295Z,22.70
2022-10-17T15:44:28.237Z,22.60
2022-10-17T15:46:55.937Z,22.50
2022-10-17T15:49:23.331Z,22.40
2022-10-17T15:51:55.142Z,22.30
2022-10-17T15:54:22.084Z,22.50
2022-10-17T15:56:53.422Z,22.30
2022-10-17T15:59:22.948Z,22.00
2022-10-17T16:01:50.054Z,21.90
2022-10-17T16:04:17.814Z,21.80
2022-10-17T16:06:45.132Z,21.90
2022-10-17T16:09:11.797Z,21.70
2022-10-17T16:11:40.552Z,21.60
2022-10-17T16:14:11.089Z,21.50
2022-10-17T16:16:38.926Z,21.30
2022-10-17T16:19:06.138Z,21.30
2022-10-17T16:21:34.829Z,21.40
2022-10-17T16:24:03.421Z,21.30
2022-10-17T16:26:30.342Z,21.20
2022-10-17T16:29:01.926Z,21.10
2022-10-17T16:31:30.855Z,21.10
2022-10-17T16:33:59.179Z,21.00
2022-10-17T16:36:26.157Z,20.90
2022-10-17T16:38:53.590Z,20.90
2022-10-17T16:41:23.395Z,20.80
2022-10-17T16:43:51.124Z,20.70
2022-10-17T16:46:18.843Z,20.60
2022-10-17T16:48:46.129Z,20.60
2022-10-17T16:51:14.295Z,20.50
2022-10-17T16:53:43.102Z,20.50
2022-10-17T16:56:11.686Z,20.30
2022-10-17T16:58:39.216Z,20.30
2022-10-17T17:01:09.154Z,20.20
2022-10-17T17:03:36.631Z,20.20
2022-10-17T17:06:04.195Z,20.20
2022-10-17T17:08:31.282Z,20.00
2022-10-17T17:10:58.185Z,20.00
2022-10-17T17:13:25.104Z,19.90
2022-10-17T17:15:54.201Z,19.90
2022-10-17T17:18:20.876Z,19.70
2022-10-17T17:20:47.498Z,19.70
2022-10-17T17:23:16.028Z,19.60
2022-10-17T17:25:44.552Z,19.60
2022-10-17T17:28:14.469Z,19.50
2022-10-17T17:30:41.069Z,19.40
2022-10-17T17:33:08.671Z,19.40
2022-10-17T17:35:38.329Z,19.20
2022-10-17T17:38:06.851Z,19.30
2022-10-17T17:40:34.319Z,19.20
2022-10-17T17:45:28.030Z,19.10
2022-10-17T17:47:54.690Z,19.30
2022-10-17T17:50:21.991Z,19.10
2022-10-17T17:52:50.473Z,19.80
2022-10-17T17:55:17.281Z,18.90
2022-10-17T17:57:43.983Z,18.80
2022-10-17T18:00:12.167Z,18.90
2022-10-17T18:02:42.196Z,18.80
2022-10-17T18:05:12.611Z,18.70
2022-10-17T18:07:40.162Z,18.70
2022-10-17T18:10:08.196Z,18.70
2022-10-17T18:12:35.271Z,18.70
2022-10-17T18:15:02.612Z,18.70
2022-10-17T18:17:29.355Z,18.70
2022-10-17T18:19:56.012Z,18.70
2022-10-17T18:22:22.724Z,18.40
2022-10-17T18:24:50.084Z,18.80
2022-10-17T18:27:17.023Z,18.40
2022-10-17T18:29:45.141Z,18.30
2022-10-17T18:32:11.836Z,18.30
2022-10-17T18:34:38.468Z,18.20
2022-10-17T18:37:05.370Z,18.20
2022-10-17T18:39:32.032Z,18.30
2022-10-17T18:41:59.984Z,18.10
2022-10-17T18:44:26.794Z,18.00
2022-10-17T18:46:53.535Z,18.00
2022-10-17T18:49:22.466Z,17.90
2022-10-17T18:51:49.566Z,17.90
2022-10-17T18:54:20.570Z,17.80
2022-10-17T18:56:51.493Z,17.80
2022-10-17T18:59:19.624Z,17.80
2022-10-17T19:01:46.848Z,17.70
2022-10-17T19:04:14.152Z,17.70
2022-10-17T19:06:42.264Z,17.70
2022-10-17T19:09:10.570Z,17.60
2022-10-17T19:11:41.504Z,17.60
2022-10-17T19:14:12.490Z,17.50
2022-10-17T19:16:41.878Z,17.50
2022-10-17T19:19:15.434Z,17.50
2022-10-17T19:21:42.484Z,17.50
2022-10-17T19:24:15.107Z,17.50
2022-10-17T19:26:42.482Z,17.60
2022-10-17T19:29:10.221Z,17.70
2022-10-17T19:31:37.125Z,17.60
2022-10-17T19:34:05.263Z,17.60
2022-10-17T19:36:34.145Z,17.90
2022-10-17T19:39:02.896Z,17.60
2022-10-17T19:41:30.399Z,17.60
2022-10-17T19:43:57.335Z,17.50
2022-10-17T19:46:26.080Z,17.60
2022-10-17T19:48:53.488Z,17.50
2022-10-17T19:51:31.183Z,17.40
2022-10-17T19:54:00.080Z,17.40
2022-10-17T19:56:28.341Z,17.50
2022-10-17T19:58:56.375Z,17.40
2022-10-17T20:01:25.144Z,17.40
2022-10-17T20:03:52.509Z,17.40
2022-10-17T20:06:21.420Z,17.30
2022-10-17T20:08:48.650Z,17.20
2022-10-17T20:11:18.094Z,17.30
2022-10-17T20:13:45.069Z,17.20
2022-10-17T20:16:14.751Z,17.30
2022-10-17T20:18:41.667Z,17.20
2022-10-17T20:21:11.065Z,17.40
2022-10-17T20:23:38.848Z,17.20
2022-10-17T20:26:25.513Z,17.10
2022-10-17T20:28:55.644Z,17.10
2022-10-17T20:31:23.280Z,17.00
2022-10-17T20:33:54.794Z,17.10
2022-10-17T20:36:22.736Z,17.10
2022-10-17T20:38:53.869Z,17.00
2022-10-17T20:41:20.659Z,17.10
2022-10-17T20:43:49.330Z,16.90
2022-10-17T20:46:23.555Z,17.00
2022-10-17T20:49:02.122Z,17.00
2022-10-17T20:51:28.715Z,16.90
2022-10-17T20:56:30.124Z,16.80
2022-10-17T20:59:00.454Z,16.80
2022-10-17T21:01:28.522Z,16.80
2022-10-17T21:03:55.138Z,16.70
2022-10-17T21:06:23.140Z,16.70
2022-10-17T21:08:51.507Z,16.70
2022-10-17T21:11:20.649Z,16.70
2022-10-17T21:13:53.014Z,16.80
2022-10-17T21:16:19.852Z,16.60
2022-10-17T21:18:48.602Z,16.60
2022-10-17T21:21:17.398Z,16.50
2022-10-17T21:23:46.967Z,16.50
2022-10-17T21:26:14.754Z,16.40
2022-10-17T21:28:43.277Z,16.30
2022-10-17T21:31:12.872Z,16.40
2022-10-17T21:33:40.431Z,16.40
2022-10-17T21:36:08.020Z,16.40
2022-10-17T21:38:35.872Z,16.30
2022-10-17T21:41:03.897Z,16.20
2022-10-17T21:43:30.757Z,16.20
2022-10-17T21:46:01.411Z,16.20
2022-10-17T21:48:28.007Z,16.20
2022-10-17T21:50:57.037Z,16.20
2022-10-17T21:53:23.671Z,16.20
2022-10-17T21:55:50.303Z,16.20
2022-10-17T21:58:16.926Z,16.20
2022-10-17T22:00:43.678Z,16.20
2022-10-17T22:03:12.125Z,16.20
2022-10-17T22:05:38.788Z,16.30
2022-10-17T22:08:05.712Z,16.20
2022-10-17T22:10:32.359Z,16.10
2022-10-17T22:12:58.957Z,16.10
2022-10-17T22:15:25.628Z,16.10
2022-10-17T22:17:52.202Z,16.10
2022-10-17T22:20:19.437Z,16.10
2022-10-17T22:22:46.079Z,16.20
2022-10-17T22:25:12.739Z,16.10
2022-10-17T22:27:39.485Z,16.10
2022-10-17T22:30:08.577Z,16.10
2022-10-17T22:32:35.643Z,16.10
2022-10-17T22:35:02.262Z,16.10
2022-10-17T22:37:29.806Z,16.10
2022-10-17T22:39:56.558Z,16.10
2022-10-17T22:42:23.284Z,16.00
2022-10-17T22:44:49.888Z,16.10
2022-10-17T22:47:16.498Z,16.20
2022-10-17T22:49:43.215Z,16.10
2022-10-17T22:52:10.037Z,16.10
2022-10-17T22:54:37.296Z,16.20
2022-10-17T22:57:03.980Z,16.10
2022-10-17T22:59:30.570Z,16.10
2022-10-17T23:01:57.357Z,16.10
2022-10-17T23:04:24.099Z,16.10
2022-10-17T23:06:50.769Z,16.30
2022-10-17T23:09:17.459Z,16.20
2022-10-17T23:11:44.890Z,16.20
2022-10-17T23:14:11.467Z,16.10
2022-10-17T23:16:38.148Z,16.20
2022-10-17T23:19:04.746Z,16.20
2022-10-17T23:21:31.448Z,16.20
2022-10-17T23:23:58.062Z,16.20
2022-10-17T23:26:24.650Z,16.20
2022-10-17T23:28:54.267Z,16.20
2022-10-17T23:31:21.850Z,16.40
2022-10-17T23:33:49.692Z,16.30
2022-10-17T23:36:18.205Z,16.30
2022-10-17T23:38:46.103Z,16.30
2022-10-17T23:41:13.416Z,16.30
2022-10-17T23:43:40.264Z,16.20
2022-10-17T23:46:07.865Z,16.30
2022-10-17T23:48:34.602Z,16.30
2022-10-17T23:51:01.137Z,16.30
2022-10-17T23:53:27.729Z,16.40
2022-10-17T23:55:54.344Z,16.30
2022-10-17T23:58:21.034Z,16.40
